Time;durP1;ratioP1;P1;durP2;ratioP2;P2;SDS_P1;SDS_P2;PMS_P1;PMS_P2;Temp;Humidity;BMP_temperature;BMP_pressure;BME280_temperature;BME280_humidity;BME280_pressure;Samples;Min_cycle;Max_cycle;Signal;HPM_P1;HPM_P2
2023/04/12 00:00:34;;;;;;;11.20;2.33;;;8.90;99.90;;;;;;4997237;28;20061;-84
2023/04/12 00:03:03;;;;;;;14.45;2.33;;;7.00;99.90;;;;;;5010440;28;20520;-83
2023/04/12 00:05:29;;;;;;;7.68;1.80;;;6.90;99.90;;;;;;4994160;28;20046;-83
2023/04/12 00:07:55;;;;;;;5.10;1.48;;;7.20;99.90;;;;;;5011126;28;20456;-84
2023/04/12 00:10:21;;;;;;;7.30;1.85;;;7.20;99.90;;;;;;4993281;28;20136;-81
2023/04/12 00:12:48;;;;;;;8.18;1.88;;;7.20;99.90;;;;;;4995091;28;20136;-81
2023/04/12 00:15:14;;;;;;;8.75;1.60;;;6.90;99.90;;;;;;5013404;28;20050;-82
2023/04/12 00:17:40;;;;;;;6.68;1.70;;;8.80;99.90;;;;;;4996245;28;20144;-86
2023/04/12 00:20:11;;;;;;;7.45;1.90;;;7.20;99.90;;;;;;5010890;28;20054;-82
2023/04/12 00:22:37;;;;;;;13.80;2.33;;;6.70;99.90;;;;;;4992129;28;20489;-83
2023/04/12 00:25:04;;;;;;;11.70;1.88;;;7.20;99.90;;;;;;4994497;28;20046;-81
2023/04/12 00:27:29;;;;;;;6.38;1.73;;;5.60;99.90;;;;;;4993153;28;20058;-86
2023/04/12 00:29:55;;;;;;;11.18;2.25;;;7.20;99.90;;;;;;4995359;28;20452;-86
2023/04/12 00:32:21;;;;;;;10.95;2.28;;;7.40;99.90;;;;;;5001291;28;20390;-81
2023/04/12 00:34:46;;;;;;;10.98;1.83;;;9.40;99.90;;;;;;4998713;28;20100;-85
2023/04/12 00:37:12;;;;;;;8.13;2.15;;;7.50;99.90;;;;;;4999863;28;20441;-83
2023/04/12 00:39:38;;;;;;;8.85;1.85;;;9.00;99.90;;;;;;4994466;28;20054;-86
2023/04/12 00:42:08;;;;;;;13.52;2.03;;;7.50;99.90;;;;;;5010161;28;20049;-86
2023/04/12 00:44:36;;;;;;;10.70;2.10;;;7.50;99.90;;;;;;5009049;28;20119;-86
2023/04/12 00:47:06;;;;;;;12.93;3.25;;;7.60;99.90;;;;;;4993694;28;20452;-86
2023/04/12 00:49:33;;;;;;;8.93;2.13;;;5.70;99.90;;;;;;5009666;28;20060;-85
2023/04/12 00:52:03;;;;;;;8.68;1.65;;;9.90;99.90;;;;;;5009195;28;20041;-83
2023/04/12 00:54:33;;;;;;;8.57;2.00;;;9.90;99.90;;;;;;5009217;28;20092;-83
2023/04/12 00:57:02;;;;;;;10.80;2.35;;;10.10;99.90;;;;;;4993984;28;20445;-86
2023/04/12 00:59:28;;;;;;;6.38;1.52;;;7.80;99.90;;;;;;4992222;28;20424;-83
2023/04/12 01:01:55;;;;;;;7.80;1.88;;;7.80;99.90;;;;;;5010030;28;20037;-84
2023/04/12 01:04:22;;;;;;;6.47;2.22;;;7.90;99.90;;;;;;4993232;28;20453;-87
2023/04/12 01:06:56;;;;;;;5.03;1.60;;;5.60;99.90;;;;;;5009187;28;20128;-87
2023/04/12 01:09:33;;;;;;;11.07;2.05;;;7.80;99.90;;;;;;4992479;28;20053;-88
2023/04/12 01:12:27;;;;;;;10.48;2.58;;;7.30;99.90;;;;;;4992746;28;20076;-83
2023/04/12 01:15:07;;;;;;;11.45;2.28;;;7.80;99.90;;;;;;5004143;28;20046;-82
2023/04/12 01:17:40;;;;;;;7.28;2.00;;;7.80;99.90;;;;;;4996386;28;20049;-86
2023/04/12 01:20:15;;;;;;;10.60;2.17;;;8.80;99.90;;;;;;4993120;28;20112;-84
2023/04/12 01:22:42;;;;;;;7.57;1.92;;;7.90;99.90;;;;;;5009084;28;20053;-85
2023/04/12 01:25:38;;;;;;;7.60;1.70;;;7.90;99.90;;;;;;5009598;28;20046;-85
2023/04/12 01:28:05;;;;;;;7.38;2.00;;;8.00;99.90;;;;;;4987923;28;20046;-85
2023/04/12 01:30:32;;;;;;;8.40;2.28;;;8.00;99.90;;;;;;4975243;28;20137;-83
2023/04/12 01:33:00;;;;;;;7.82;1.70;;;8.00;99.90;;;;;;4977531;28;20568;-87
2023/04/12 01:35:30;;;;;;;4.60;1.67;;;6.60;99.90;;;;;;4999292;28;20050;-86
2023/04/12 01:37:57;;;;;;;6.65;1.80;;;7.90;99.90;;;;;;4994061;28;20297;-84
2023/04/12 01:40:26;;;;;;;15.65;2.33;;;6.50;99.90;;;;;;5008407;28;20121;-83
2023/04/12 01:43:12;;;;;;;11.60;2.10;;;8.00;99.90;;;;;;5009023;28;20046;-82
2023/04/12 01:45:38;;;;;;;7.10;1.73;;;8.00;99.90;;;;;;4992304;28;20053;-82
2023/04/12 01:48:06;;;;;;;9.35;2.42;;;10.10;99.90;;;;;;5008031;28;20060;-83
2023/04/12 01:50:45;;;;;;;11.57;1.83;;;8.40;99.90;;;;;;4990303;28;20046;-82
2023/04/12 01:53:19;;;;;;;7.68;1.60;;;7.90;99.90;;;;;;5013776;28;20060;-82
2023/04/12 01:55:47;;;;;;;9.57;2.35;;;6.80;99.90;;;;;;4973772;28;20061;-89
2023/04/12 01:58:20;;;;;;;8.95;1.95;;;7.90;99.90;;;;;;4977174;28;20049;-90
2023/04/12 02:00:50;;;;;;;8.10;2.25;;;10.50;99.90;;;;;;4969918;28;20077;-85
2023/04/12 02:03:20;;;;;;;8.18;2.25;;;10.00;99.90;;;;;;4991658;28;20474;-82
2023/04/12 02:05:46;;;;;;;5.82;1.73;;;9.80;99.90;;;;;;4973252;28;20133;-86
2023/04/12 02:08:12;;;;;;;5.63;1.58;;;8.00;99.90;;;;;;4990637;28;20049;-83
2023/04/12 02:10:39;;;;;;;13.55;2.38;;;9.30;99.90;;;;;;5002802;28;20054;-85
2023/04/12 02:13:05;;;;;;;8.40;1.40;;;8.00;99.90;;;;;;4986966;28;20069;-83
2023/04/12 02:15:31;;;;;;;7.03;1.60;;;9.90;99.90;;;;;;4996902;28;20057;-84
2023/04/12 02:17:58;;;;;;;8.13;1.50;;;;;;;;;;4974332;28;20046;-88
2023/04/12 02:20:29;;;;;;;10.60;1.55;;;8.00;99.90;;;;;;4987251;28;20066;-87
2023/04/12 02:22:55;;;;;;;9.95;2.00;;;8.10;99.90;;;;;;4975314;28;20481;-82
2023/04/12 02:25:21;;;;;;;6.38;1.63;;;10.40;99.90;;;;;;4976708;28;20058;-83
2023/04/12 02:27:51;;;;;;;6.05;1.33;;;8.10;99.90;;;;;;4981436;28;20050;-83
2023/04/12 02:30:20;;;;;;;6.38;1.40;;;7.70;99.90;;;;;;4995765;28;20056;-83
2023/04/12 02:32:50;;;;;;;6.13;1.10;;;8.20;99.90;;;;;;4984458;28;20128;-84
2023/04/12 02:35:17;;;;;;;4.80;1.13;;;6.80;99.90;;;;;;4996424;28;20133;-82
2023/04/12 02:37:47;;;;;;;9.13;1.23;;;8.10;99.90;;;;;;4981690;28;20501;-81
2023/04/12 02:40:14;;;;;;;8.93;1.77;;;9.10;99.90;;;;;;4962417;28;20055;-83
2023/04/12 02:42:41;;;;;;;3.72;1.27;;;8.10;99.90;;;;;;4995664;28;20132;-82
2023/04/12 02:45:07;;;;;;;4.78;1.02;;;10.40;99.90;;;;;;4995465;28;20050;-83
2023/04/12 02:47:33;;;;;;;4.88;1.52;;;8.10;99.90;;;;;;4995391;28;20054;-84
2023/04/12 02:49:59;;;;;;;7.97;1.33;;;8.10;99.90;;;;;;4995781;28;20133;-83
2023/04/12 02:52:25;;;;;;;3.53;1.13;;;11.00;99.90;;;;;;4978134;28;20058;-83
2023/04/12 02:54:51;;;;;;;7.97;1.30;;;7.90;99.90;;;;;;5009718;28;20060;-84
2023/04/12 02:57:17;;;;;;;10.27;1.80;;;8.40;99.90;;;;;;4995433;28;20088;-82
2023/04/12 02:59:43;;;;;;;6.15;1.33;;;9.60;99.90;;;;;;4994874;28;20093;-86
2023/04/12 03:02:11;;;;;;;8.25;1.45;;;6.80;99.90;;;;;;5011996;28;20500;-83
2023/04/12 03:04:38;;;;;;;4.03;1.10;;;7.60;99.90;;;;;;5011781;28;20440;-84
2023/04/12 03:07:05;;;;;;;7.13;1.40;;;8.30;99.90;;;;;;4995145;28;20050;-85
2023/04/12 03:09:31;;;;;;;6.70;1.65;;;;;;;;;;5012879;28;20060;-82
2023/04/12 03:11:57;;;;;;;6.65;1.10;;;8.00;99.90;;;;;;5013435;28;20038;-83
2023/04/12 03:14:23;;;;;;;7.05;1.52;;;10.30;99.90;;;;;;4995239;28;20061;-84
2023/04/12 03:16:50;;;;;;;7.80;1.48;;;7.90;99.90;;;;;;5011652;28;20429;-84
2023/04/12 03:19:16;;;;;;;6.95;1.77;;;10.30;99.90;;;;;;4994785;28;20049;-88
2023/04/12 03:21:43;;;;;;;9.00;1.55;;;10.50;99.90;;;;;;5010652;28;20140;-83
2023/04/12 03:24:10;;;;;;;3.72;1.00;;;10.40;99.90;;;;;;4994726;28;20093;-82
2023/04/12 03:26:36;;;;;;;6.43;1.20;;;10.10;99.90;;;;;;4993646;28;20064;-86
2023/04/12 03:29:07;;;;;;;8.80;2.33;;;8.10;99.90;;;;;;4995293;28;20054;-86
2023/04/12 03:31:33;;;;;;;5.40;1.30;;;10.60;99.90;;;;;;4994880;28;20046;-81
2023/04/12 03:34:01;;;;;;;4.57;1.35;;;8.30;99.90;;;;;;4994704;28;20089;-82
2023/04/12 03:36:29;;;;;;;6.90;1.15;;;8.10;99.90;;;;;;4993505;28;20061;-82
2023/04/12 03:38:55;;;;;;;5.63;1.23;;;9.20;99.90;;;;;;5003928;28;20151;-81
2023/04/12 03:41:22;;;;;;;5.78;1.17;;;8.10;99.90;;;;;;5012777;28;20125;-82
2023/04/12 03:43:48;;;;;;;5.38;1.00;;;8.10;99.90;;;;;;5014005;28;20140;-82
2023/04/12 03:46:17;;;;;;;5.30;0.90;;;8.10;99.90;;;;;;4982210;28;20058;-83
2023/04/12 03:48:44;;;;;;;8.18;1.45;;;10.50;99.90;;;;;;4998131;28;20057;-86
2023/04/12 03:51:11;;;;;;;5.20;1.05;;;9.70;99.90;;;;;;4998981;28;20058;-85
2023/04/12 03:53:38;;;;;;;5.05;1.17;;;8.40;99.90;;;;;;4981399;28;20072;-82
2023/04/12 03:56:04;;;;;;;5.13;1.17;;;8.00;99.90;;;;;;5011811;28;20151;-84
2023/04/12 03:58:32;;;;;;;4.82;1.02;;;7.90;99.90;;;;;;4995991;28;20062;-82
2023/04/12 04:01:00;;;;;;;6.82;1.45;;;8.00;99.90;;;;;;4994035;28;20073;-84
2023/04/12 04:03:28;;;;;;;8.02;1.55;;;8.00;99.90;;;;;;5010558;28;20417;-81
2023/04/12 04:05:55;;;;;;;6.72;1.25;;;9.40;99.90;;;;;;5013472;28;20108;-82
2023/04/12 04:08:23;;;;;;;5.82;1.70;;;10.60;99.90;;;;;;4996060;28;20049;-81
2023/04/12 04:10:52;;;;;;;7.07;1.35;;;8.00;99.90;;;;;;4994609;28;20065;-84
2023/04/12 04:13:41;;;;;;;7.88;1.58;;;10.10;99.90;;;;;;4991271;28;20052;-82
2023/04/12 04:16:39;;;;;;;7.55;1.08;;;8.00;99.90;;;;;;5002791;28;20053;-84
2023/04/12 04:19:06;;;;;;;6.25;1.33;;;8.20;99.90;;;;;;5003456;28;20401;-83
2023/04/12 04:21:32;;;;;;;7.53;1.30;;;7.90;99.90;;;;;;4974166;28;20113;-84
2023/04/12 04:24:01;;;;;;;6.50;1.70;;;7.90;99.90;;;;;;5010129;28;20050;-83
2023/04/12 04:26:32;;;;;;;5.40;1.88;;;7.90;99.90;;;;;;4994684;28;20046;-86
2023/04/12 04:29:02;;;;;;;7.82;1.92;;;7.90;99.90;;;;;;4985585;28;20049;-84
2023/04/12 04:31:33;;;;;;;9.43;2.17;;;7.80;99.90;;;;;;5009875;28;20061;-84
2023/04/12 04:34:04;;;;;;;4.60;1.60;;;7.90;99.90;;;;;;5004087;28;20121;-84
2023/04/12 04:36:32;;;;;;;7.57;1.90;;;9.80;99.90;;;;;;4992291;28;20059;-85
2023/04/12 04:38:58;;;;;;;9.32;1.85;;;7.80;99.90;;;;;;5002177;28;20045;-83
2023/04/12 04:41:25;;;;;;;10.20;2.13;;;9.40;99.90;;;;;;5009577;28;20139;-84
2023/04/12 04:43:51;;;;;;;8.13;1.98;;;7.70;99.90;;;;;;4993282;28;20497;-85
2023/04/12 04:46:20;;;;;;;4.65;2.17;;;9.40;99.90;;;;;;5010214;28;20065;-84
2023/04/12 04:48:50;;;;;;;8.65;1.98;;;7.80;99.90;;;;;;4992908;28;20085;-84
2023/04/12 04:51:16;;;;;;;6.65;2.70;;;9.70;99.90;;;;;;5009246;28;20053;-84
2023/04/12 04:53:46;;;;;;;7.72;3.20;;;7.70;99.90;;;;;;4962471;28;20497;-83
2023/04/12 04:56:12;;;;;;;4.43;2.15;;;7.70;99.90;;;;;;5009611;28;20140;-83
2023/04/12 04:58:39;;;;;;;8.90;2.50;;;9.90;99.90;;;;;;4991478;28;20848;-83
2023/04/12 05:01:05;;;;;;;4.97;1.73;;;9.50;99.90;;;;;;4977033;28;20132;-83
2023/04/12 05:03:32;;;;;;;8.15;2.58;;;7.60;99.90;;;;;;4993183;28;20493;-84
2023/04/12 05:06:02;;;;;;;6.18;2.53;;;7.70;99.90;;;;;;4992543;28;20132;-83
2023/04/12 05:08:28;;;;;;;7.93;2.50;;;7.70;99.90;;;;;;4992522;28;20054;-83
2023/04/12 05:10:55;;;;;;;7.30;2.15;;;10.20;99.90;;;;;;4992293;28;20513;-84
2023/04/12 05:13:22;;;;;;;6.82;2.05;;;10.10;99.90;;;;;;5010314;28;20053;-83
2023/04/12 05:15:48;;;;;;;12.00;2.67;;;10.00;99.90;;;;;;5009415;28;20112;-83
2023/04/12 05:18:14;;;;;;;8.07;2.05;;;8.50;99.90;;;;;;4992288;28;20051;-85
2023/04/12 05:20:40;;;;;;;9.30;2.17;;;7.50;99.90;;;;;;5010126;28;20196;-84
2023/04/12 05:23:06;;;;;;;5.97;1.80;;;9.60;99.90;;;;;;5009287;28;20493;-83
2023/04/12 05:25:34;;;;;;;6.13;2.20;;;8.10;99.90;;;;;;5007878;28;20056;-83
2023/04/12 05:28:00;;;;;;;11.32;3.13;;;10.10;99.90;;;;;;5009411;28;20056;-83
2023/04/12 05:30:26;;;;;;;5.93;1.92;;;7.50;99.90;;;;;;4992377;28;20049;-83
2023/04/12 05:32:51;;;;;;;8.00;2.85;;;9.60;99.90;;;;;;5009687;28;20057;-83
2023/04/12 05:35:20;;;;;;;4.40;1.83;;;9.80;99.90;;;;;;5009103;28;20551;-83
2023/04/12 05:37:45;;;;;;;6.82;2.30;;;8.40;99.90;;;;;;5010446;28;20405;-84
2023/04/12 05:40:11;;;;;;;4.55;2.00;;;7.40;99.90;;;;;;5008095;28;20145;-85
2023/04/12 05:42:37;;;;;;;9.35;2.33;;;6.90;99.90;;;;;;4992528;28;20054;-84
2023/04/12 05:45:04;;;;;;;5.25;2.35;;;7.40;99.90;;;;;;5010553;28;20064;-86
2023/04/12 05:47:30;;;;;;;5.50;2.13;;;7.40;99.90;;;;;;5007789;28;20061;-85
2023/04/12 05:49:55;;;;;;;8.00;1.92;;;8.30;99.90;;;;;;5008867;28;20057;-84
2023/04/12 05:52:21;;;;;;;6.32;2.25;;;7.50;99.90;;;;;;5009591;28;20054;-84
2023/04/12 05:54:47;;;;;;;5.63;2.30;;;9.40;99.90;;;;;;5007734;28;20136;-84
2023/04/12 05:57:14;;;;;;;7.75;2.53;;;10.50;99.90;;;;;;4992571;28;20177;-86
2023/04/12 05:59:40;;;;;;;6.40;2.30;;;7.30;99.90;;;;;;4991645;28;20348;-83
2023/04/12 06:02:06;;;;;;;8.23;3.17;;;7.40;99.90;;;;;;5009289;28;20046;-85
2023/04/12 06:04:32;;;;;;;4.85;2.58;;;9.50;99.90;;;;;;4991956;28;20046;-83
2023/04/12 06:06:58;;;;;;;9.02;2.58;;;9.80;99.90;;;;;;5010071;28;20128;-83
2023/04/12 06:09:23;;;;;;;11.93;2.28;;;5.80;99.90;;;;;;5007459;28;20437;-85
2023/04/12 06:11:52;;;;;;;8.90;2.53;;;;;;;;;;5008435;28;20049;-83
2023/04/12 06:14:17;;;;;;;7.13;2.42;;;7.40;99.90;;;;;;5009284;28;20054;-83
2023/04/12 06:16:43;;;;;;;5.68;2.08;;;9.60;99.90;;;;;;5007975;28;20494;-84
2023/04/12 06:19:10;;;;;;;7.93;2.13;;;9.60;99.90;;;;;;5008716;28;20092;-85
2023/04/12 06:21:35;;;;;;;4.05;1.75;;;7.90;99.90;;;;;;4991043;28;20050;-85
2023/04/12 06:24:02;;;;;;;7.47;2.67;;;9.30;99.90;;;;;;5008379;28;20527;-84
2023/04/12 06:26:29;;;;;;;8.32;2.15;;;9.80;99.90;;;;;;4972591;28;20046;-84
2023/04/12 06:28:56;;;;;;;4.55;1.65;;;8.90;99.90;;;;;;5006550;28;20123;-85
2023/04/12 06:31:22;;;;;;;6.97;2.45;;;;;;;;;;5007954;28;20058;-83
2023/04/12 06:33:50;;;;;;;4.07;1.92;;;7.40;99.90;;;;;;5008446;28;20490;-85
2023/04/12 06:36:20;;;;;;;4.43;1.77;;;7.40;99.90;;;;;;5007665;28;20054;-84
2023/04/12 06:38:49;;;;;;;5.13;1.92;;;7.40;99.90;;;;;;5008125;28;20068;-84
2023/04/12 06:41:15;;;;;;;7.80;2.22;;;7.40;99.90;;;;;;4991717;28;20045;-85
2023/04/12 06:43:50;;;;;;;4.47;1.83;;;;;;;;;;4992452;28;20485;-84
2023/04/12 06:46:25;;;;;;;3.58;1.90;;;7.40;99.90;;;;;;4991879;28;20493;-84
2023/04/12 06:48:50;;;;;;;;;;;7.20;99.90;;;;;;5008951;28;20045;-85
2023/04/12 06:51:16;;;;;;;4.13;1.50;;;10.30;99.90;;;;;;5007664;28;19983;-85
2023/04/12 06:53:42;;;;;;;4.78;2.10;;;8.90;99.90;;;;;;5005407;28;20053;-84
2023/04/12 06:56:07;;;;;;;7.68;1.58;;;7.00;99.90;;;;;;5004733;28;20054;-82
2023/04/12 06:58:33;;;;;;;4.50;1.83;;;7.40;99.90;;;;;;4998967;28;20053;-85
2023/04/12 07:01:06;;;;;;;4.45;3.03;;;9.70;99.90;;;;;;4999715;28;20049;-83
2023/04/12 07:03:32;;;;;;;5.25;1.98;;;7.40;99.90;;;;;;5006070;28;20417;-86
2023/04/12 07:06:03;;;;;;;5.72;2.13;;;8.90;99.90;;;;;;4978721;28;20436;-83
2023/04/12 07:08:32;;;;;;;4.43;2.00;;;9.90;99.90;;;;;;5007942;28;20101;-82
2023/04/12 07:10:57;;;;;;;3.30;2.03;;;10.10;99.90;;;;;;5006834;28;20372;-84
2023/04/12 07:13:23;;;;;;;5.00;3.05;;;7.40;99.90;;;;;;5008510;28;20058;-82
2023/04/12 07:15:51;;;;;;;4.80;2.40;;;9.90;99.90;;;;;;5011213;28;20045;-83
2023/04/12 07:18:17;;;;;;;4.57;3.67;;;7.30;99.90;;;;;;4991898;28;20093;-83
2023/04/12 07:20:46;;;;;;;4.35;2.30;;;9.80;99.90;;;;;;5010237;28;20088;-87
2023/04/12 07:23:12;;;;;;;6.00;1.70;;;9.10;99.90;;;;;;5002606;28;20185;-83
2023/04/12 07:25:38;;;;;;;4.53;1.85;;;8.30;99.90;;;;;;5008261;28;20046;-82
2023/04/12 07:28:05;;;;;;;3.58;1.48;;;5.60;99.90;;;;;;4993605;28;20409;-81
2023/04/12 07:30:30;;;;;;;5.90;2.08;;;8.20;99.90;;;;;;4997738;28;20053;-82
2023/04/12 07:32:56;;;;;;;3.35;1.75;;;9.30;99.90;;;;;;4982106;28;20054;-83
2023/04/12 07:35:22;;;;;;;1.77;1.67;;;8.10;99.90;;;;;;4991999;28;20078;-83
2023/04/12 07:37:47;;;;;;;3.47;2.00;;;9.30;99.90;;;;;;4986509;28;20042;-84
2023/04/12 07:40:13;;;;;;;3.97;1.85;;;10.00;99.90;;;;;;5004011;28;20143;-84
2023/04/12 07:42:39;;;;;;;4.97;2.10;;;7.60;99.90;;;;;;5007401;28;20037;-84
2023/04/12 07:45:05;;;;;;;2.40;2.00;;;10.20;99.90;;;;;;5005571;28;20050;-83
2023/04/12 07:47:31;;;;;;;3.65;2.60;;;7.50;99.90;;;;;;5006615;28;20073;-83
2023/04/12 07:49:57;;;;;;;2.88;1.50;;;7.60;99.90;;;;;;5007898;28;20125;-84
2023/04/12 07:52:24;;;;;;;2.10;1.73;;;9.70;99.90;;;;;;5008659;28;20049;-84
2023/04/12 07:54:50;;;;;;;3.17;1.85;;;7.60;99.90;;;;;;4989576;28;20053;-83
2023/04/12 07:57:15;;;;;;;3.80;1.60;;;8.40;99.90;;;;;;5011032;28;20378;-83
2023/04/12 07:59:41;;;;;;;3.80;1.90;;;7.60;99.90;;;;;;4990587;28;20421;-83
2023/04/12 08:02:07;;;;;;;3.90;2.03;;;7.60;99.90;;;;;;5011750;28;20045;-83
2023/04/12 08:04:32;;;;;;;4.78;1.95;;;7.60;99.90;;;;;;5011137;28;20050;-83
2023/04/12 08:06:58;;;;;;;3.78;1.50;;;7.60;99.90;;;;;;5010085;28;20485;-83
2023/04/12 08:09:24;;;;;;;4.40;1.80;;;7.70;99.90;;;;;;4996294;28;20441;-83
2023/04/12 08:11:50;;;;;;;3.30;1.65;;;9.70;99.90;;;;;;5006788;28;20037;-83
2023/04/12 08:14:15;;;;;;;5.80;2.40;;;9.70;99.90;;;;;;4993748;28;20057;-83
2023/04/12 08:16:41;;;;;;;2.25;2.05;;;7.70;99.90;;;;;;5004232;28;20042;-83
2023/04/12 08:19:07;;;;;;;3.13;2.25;;;9.30;99.90;;;;;;5009899;28;20057;-83
2023/04/12 08:21:33;;;;;;;2.15;1.92;;;7.70;99.90;;;;;;5009791;28;20572;-83
2023/04/12 08:23:59;;;;;;;5.45;2.35;;;10.30;99.90;;;;;;4993968;28;20061;-83
2023/04/12 08:26:28;;;;;;;3.22;2.00;;;7.70;99.90;;;;;;5010544;28;20042;-83
2023/04/12 08:28:56;;;;;;;3.28;1.67;;;9.90;99.90;;;;;;5010628;28;20139;-83
2023/04/12 08:31:22;;;;;;;3.33;1.67;;;7.70;99.90;;;;;;5005056;28;20065;-83
2023/04/12 08:33:48;;;;;;;2.40;2.03;;;9.50;99.90;;;;;;5007577;28;20057;-84
2023/04/12 08:36:14;;;;;;;3.92;2.38;;;7.70;99.90;;;;;;5009721;28;20049;-85
2023/04/12 08:38:40;;;;;;;3.80;2.13;;;10.10;99.90;;;;;;5009237;28;20066;-84
2023/04/12 08:41:06;;;;;;;3.42;2.00;;;7.90;99.90;;;;;;5009598;28;20089;-85
2023/04/12 08:43:33;;;;;;;2.28;2.08;;;7.90;99.90;;;;;;5009670;28;20057;-86
2023/04/12 08:46:00;;;;;;;3.88;2.15;;;7.90;99.90;;;;;;5000210;28;20052;-85
2023/04/12 08:48:27;;;;;;;2.55;2.35;;;7.90;99.90;;;;;;5007688;28;20171;-85
2023/04/12 08:50:55;;;;;;;3.38;2.45;;;9.10;99.90;;;;;;5009284;28;20073;-85
2023/04/12 08:53:21;;;;;;;3.80;2.80;;;7.90;99.90;;;;;;5001075;28;20150;-84
2023/04/12 08:55:46;;;;;;;2.50;2.30;;;7.90;99.90;;;;;;5009933;28;20093;-84
2023/04/12 08:58:15;;;;;;;2.92;2.67;;;7.70;99.90;;;;;;5010774;28;20050;-85
2023/04/12 09:00:43;;;;;;;2.95;2.33;;;7.90;99.90;;;;;;4995176;28;20053;-86
2023/04/12 09:03:11;;;;;;;3.10;2.90;;;8.00;99.90;;;;;;5007887;28;20054;-84
2023/04/12 09:05:37;;;;;;;3.13;2.85;;;8.00;99.90;;;;;;5006331;28;20787;-83
2023/04/12 09:08:03;;;;;;;3.65;3.35;;;8.10;99.90;;;;;;4975590;28;20105;-84
2023/04/12 09:10:37;;;;;;;3.90;3.20;;;8.10;99.90;;;;;;4967324;28;20046;-85
2023/04/12 09:13:06;;;;;;;5.40;4.10;;;8.20;99.90;;;;;;4985519;28;20054;-88
2023/04/12 09:15:33;;;;;;;3.50;3.20;;;10.60;99.90;;;;;;4966708;28;20175;-86
2023/04/12 09:18:17;;;;;;;8.35;3.70;;;8.20;99.90;;;;;;4988870;28;20049;-86
2023/04/12 09:20:46;;;;;;;3.97;3.70;;;8.30;99.90;;;;;;5004324;28;20073;-86
2023/04/12 09:23:25;;;;;;;3.40;3.20;;;10.10;99.90;;;;;;4985017;28;20621;-85
2023/04/12 09:25:52;;;;;;;3.13;2.92;;;10.00;99.90;;;;;;4990557;28;20140;-85
2023/04/12 09:28:28;;;;;;;4.05;3.00;;;8.20;99.90;;;;;;4954051;28;20181;-86
2023/04/12 09:30:59;;;;;;;3.85;3.50;;;10.00;99.90;;;;;;4998092;28;20050;-85
2023/04/12 09:33:36;;;;;;;4.80;3.15;;;10.80;99.90;;;;;;4961658;28;20196;-86
2023/04/12 09:36:03;;;;;;;4.40;4.00;;;10.60;99.90;;;;;;4977643;28;20494;-85
2023/04/12 09:38:30;;;;;;;3.95;3.50;;;8.50;99.90;;;;;;4999168;28;20818;-87
2023/04/12 09:40:56;;;;;;;6.57;4.05;;;8.50;99.90;;;;;;4983930;28;20049;-86
2023/04/12 09:43:38;;;;;;;4.78;4.00;;;9.60;99.90;;;;;;4957840;28;20089;-85
2023/04/12 09:46:12;;;;;;;4.68;3.58;;;8.60;99.90;;;;;;4975609;28;20133;-86
2023/04/12 09:48:39;;;;;;;5.82;3.78;;;8.70;99.90;;;;;;4995338;28;20465;-86
2023/04/12 09:51:08;;;;;;;5.85;2.85;;;8.80;99.90;;;;;;4978407;28;20567;-88
2023/04/12 09:53:36;;;;;;;4.35;3.25;;;8.90;99.90;;;;;;4969512;28;20046;-86
2023/04/12 09:56:08;;;;;;;3.45;3.15;;;10.40;99.90;;;;;;4996704;28;20084;-87
2023/04/12 09:58:36;;;;;;;7.20;4.10;;;8.90;99.90;;;;;;4998143;28;20138;-85
2023/04/12 10:01:03;;;;;;;9.45;4.80;;;9.00;99.90;;;;;;4988776;28;20123;-87
2023/04/12 10:03:29;;;;;;;7.90;4.40;;;9.10;99.90;;;;;;5000093;28;20050;-87
2023/04/12 10:05:55;;;;;;;7.22;5.22;;;11.80;99.90;;;;;;5003665;28;20108;-87
2023/04/12 10:08:24;;;;;;;5.05;4.18;;;11.90;99.90;;;;;;4992395;28;20148;-85
2023/04/12 10:10:52;;;;;;;6.53;4.10;;;9.30;99.90;;;;;;5008548;28;20120;-86
2023/04/12 10:13:19;;;;;;;6.03;3.88;;;9.60;99.90;;;;;;4999775;28;20062;-85
2023/04/12 10:15:48;;;;;;;3.58;3.28;;;9.60;99.90;;;;;;4990730;28;20043;-86
2023/04/12 10:18:16;;;;;;;7.15;4.22;;;9.70;99.90;;;;;;5003853;28;20055;-84
2023/04/12 10:20:45;;;;;;;6.10;4.40;;;9.80;99.90;;;;;;4979599;28;20513;-82
2023/04/12 10:23:14;;;;;;;9.93;3.83;;;;;;;;;;5003693;28;20424;-84
2023/04/12 10:25:43;;;;;;;6.95;3.08;;;9.90;99.90;;;;;;4998365;28;20327;-86
2023/04/12 10:28:17;;;;;;;8.18;3.15;;;10.40;99.90;;;;;;4978223;28;20058;-87
2023/04/12 10:30:48;;;;;;;7.43;3.08;;;10.00;99.90;;;;;;4982453;28;20049;-84
2023/04/12 10:33:16;;;;;;;8.00;3.20;;;10.00;99.90;;;;;;4975225;28;20089;-88
2023/04/12 10:35:49;;;;;;;13.40;3.22;;;10.20;99.90;;;;;;4997085;28;20042;-87
2023/04/12 10:38:15;;;;;;;11.50;3.15;;;10.10;99.90;;;;;;4986285;28;20104;-87
2023/04/12 10:41:09;;;;;;;8.15;3.03;;;10.20;99.90;;;;;;4995828;28;20057;-87
2023/04/12 10:43:37;;;;;;;7.80;3.10;;;10.20;99.90;;;;;;5001597;28;20042;-86
2023/04/12 10:46:42;;;;;;;14.00;3.03;;;10.40;99.90;;;;;;5009927;28;20497;-88
2023/04/12 10:49:51;;;;;;;8.32;2.10;;;10.50;99.90;;;;;;5008749;28;20133;-87
2023/04/12 10:52:17;;;;;;;;;;;10.60;99.90;;;;;;4994108;28;20594;-86
2023/04/12 10:54:47;;;;;;;8.90;2.58;;;11.80;99.90;;;;;;5005656;28;19928;-87
2023/04/12 10:58:02;;;;;;;9.35;1.90;;;10.70;99.90;;;;;;5005658;28;20132;-86
2023/04/12 11:00:55;;;;;;;11.80;2.42;;;10.70;99.90;;;;;;5006151;28;20624;-87
2023/04/12 11:04:35;;;;;;;12.25;2.47;;;10.80;99.90;;;;;;5008319;28;20130;-88
2023/04/12 11:07:10;;;;;;;6.28;2.33;;;10.90;99.90;;;;;;5009970;28;20053;-88
2023/04/12 11:09:42;;;;;;;9.18;2.13;;;13.30;99.90;;;;;;4997802;28;20132;-86
2023/04/12 11:12:07;;;;;;;8.68;2.30;;;10.90;99.90;;;;;;5012830;28;20054;-88
2023/04/12 11:14:35;;;;;;;12.32;2.60;;;10.90;99.90;;;;;;5005107;28;20153;-89
2023/04/12 11:17:05;;;;;;;17.52;3.15;;;12.60;99.90;;;;;;5011865;28;20535;-89
2023/04/12 11:19:47;;;;;;;17.35;2.17;;;9.30;99.90;;;;;;5010774;28;20100;-90
2023/04/12 11:22:18;;;;;;;16.02;2.40;;;11.40;99.90;;;;;;4315414;28;10000722;-88
2023/04/12 11:24:45;;;;;;;11.55;2.58;;;;;;;;;;5002713;28;20056;-86
2023/04/12 11:27:11;;;;;;;11.93;2.45;;;;;;;;;;5010449;28;20061;-88
2023/04/12 11:29:37;;;;;;;12.77;2.25;;;11.20;99.90;;;;;;4991564;28;20054;-88
2023/04/12 11:32:06;;;;;;;9.20;2.00;;;10.80;99.90;;;;;;5010517;28;20540;-88
2023/04/12 11:34:33;;;;;;;11.40;2.28;;;12.20;99.90;;;;;;5007576;28;20054;-90
2023/04/12 11:36:59;;;;;;;12.88;2.10;;;;;;;;;;4988458;28;20449;-89
2023/04/12 11:39:31;;;;;;;15.23;3.25;;;;;;;;;;5009426;28;20527;-88
2023/04/12 11:41:58;;;;;;;14.57;3.15;;;11.20;99.90;;;;;;4992789;28;20046;-89
2023/04/12 11:44:23;;;;;;;15.02;2.78;;;13.40;99.90;;;;;;5007795;28;20069;-87
2023/04/12 11:46:50;;;;;;;10.50;2.03;;;11.80;99.90;;;;;;4991303;28;20501;-86
2023/04/12 11:49:20;;;;;;;17.17;2.92;;;12.70;99.90;;;;;;5010078;28;20089;-85
2023/04/12 11:51:46;;;;;;;17.58;2.88;;;13.20;99.90;;;;;;5006389;28;20053;-87
2023/04/12 11:54:14;;;;;;;10.75;2.10;;;13.50;99.90;;;;;;5007044;28;20061;-86
2023/04/12 11:56:41;;;;;;;12.30;2.65;;;11.20;99.90;;;;;;4991898;28;20386;-86
2023/04/12 11:59:07;;;;;;;15.45;3.00;;;13.50;99.90;;;;;;4991695;28;20053;-87
2023/04/12 12:01:36;;;;;;;13.77;2.55;;;13.50;99.90;;;;;;4989939;28;20568;-91
2023/04/12 12:04:03;;;;;;;12.00;2.17;;;12.30;99.90;;;;;;4988112;28;20096;-89
2023/04/12 12:06:33;;;;;;;12.65;2.45;;;12.90;99.90;;;;;;5005687;28;20062;-89
2023/04/12 12:08:59;;;;;;;17.38;2.72;;;11.70;99.90;;;;;;4988235;28;20468;-89
2023/04/12 12:11:26;;;;;;;15.07;2.35;;;13.40;99.90;;;;;;5007779;28;20077;-89
2023/04/12 12:13:55;;;;;;;15.18;3.00;;;13.00;99.90;;;;;;4978185;28;20089;-90
2023/04/12 12:16:27;;;;;;;14.52;2.97;;;13.10;99.90;;;;;;5009336;28;20049;-88
2023/04/12 12:18:55;;;;;;;18.15;3.85;;;11.00;99.90;;;;;;5001729;28;20497;-88
2023/04/12 12:21:21;;;;;;;15.32;2.58;;;11.40;99.90;;;;;;5008642;28;20081;-88
2023/04/12 12:23:47;;;;;;;13.55;2.70;;;11.00;99.90;;;;;;5008934;28;20072;-88
2023/04/12 12:26:24;;;;;;;13.27;3.08;;;11.00;99.90;;;;;;5008664;28;20493;-88
2023/04/12 12:28:55;;;;;;;18.95;2.75;;;11.10;99.90;;;;;;5004614;28;20056;-88
2023/04/12 12:31:23;;;;;;;23.90;3.40;;;11.10;99.90;;;;;;5002437;28;20457;-87
2023/04/12 12:33:55;;;;;;;14.15;2.53;;;11.30;99.90;;;;;;4992860;28;20448;-87
2023/04/12 12:36:31;;;;;;;11.40;2.22;;;13.20;99.90;;;;;;5007182;28;20065;-88
2023/04/12 12:39:05;;;;;;;18.92;2.45;;;11.50;99.90;;;;;;5011671;28;20046;-88
2023/04/12 12:41:32;;;;;;;13.52;2.53;;;11.70;99.90;;;;;;4989106;28;20080;-89
2023/04/12 12:43:58;;;;;;;15.70;3.08;;;;;;;;;;4977606;28;20489;-89
2023/04/12 12:46:23;;;;;;;6.85;1.80;;;11.80;99.90;;;;;;5006123;28;20053;-88
2023/04/12 12:48:49;;;;;;;10.55;1.60;;;12.20;99.90;;;;;;5010986;28;20049;-88
2023/04/12 12:51:19;;;;;;;5.68;1.33;;;12.00;99.90;;;;;;4975693;28;20116;-89
2023/04/12 12:53:45;;;;;;;5.75;2.05;;;11.00;99.90;;;;;;4998362;28;20497;-89
2023/04/12 12:56:12;;;;;;;8.63;1.50;;;12.90;99.90;;;;;;4976004;28;20104;-89
2023/04/12 12:58:38;;;;;;;13.25;2.63;;;;;;;;;;4992804;28;20321;-88
2023/04/12 13:01:07;;;;;;;13.85;2.10;;;11.50;99.90;;;;;;5009190;28;20086;-88
2023/04/12 13:03:33;;;;;;;12.90;2.45;;;14.30;99.90;;;;;;4993364;28;20058;-88